Time;durP1;ratioP1;P1;durP2;ratioP2;P2;SDS_P1;SDS_P2;PMS_P1;PMS_P2;Temp;Humidity;BMP_temperature;BMP_pressure;BME280_temperature;BME280_humidity;BME280_pressure;Samples;Min_cycle;Max_cycle;Signal;HPM_P1;HPM_P2
2021/11/10 00:00:44;;;;;;;16.90;9.30;;;5.00;99.90;;;;;;4230155;28;20456;-77
2021/11/10 00:02:47;;;;;;;16.60;9.83;;;5.00;99.90;;;;;;4230429;28;20479;-78
2021/11/10 00:04:49;;;;;;;18.63;9.70;;;4.90;99.90;;;;;;4230131;28;21319;-77
2021/11/10 00:06:52;;;;;;;18.73;9.97;;;4.90;99.90;;;;;;4231180;28;20504;-77
2021/11/10 00:08:54;;;;;;;17.67;10.10;;;4.90;99.90;;;;;;4230951;28;20815;-77
2021/11/10 00:10:56;;;;;;;21.80;11.13;;;4.90;99.90;;;;;;4230476;28;20484;-78
2021/11/10 00:13:03;;;;;;;17.67;10.23;;;4.80;99.90;;;;;;4231152;28;20485;-78
2021/11/10 00:15:07;;;;;;;20.03;10.90;;;4.80;99.90;;;;;;4244121;27;20495;-78
2021/11/10 00:17:08;;;;;;;19.87;10.93;;;4.80;99.90;;;;;;4220717;28;20473;-78
2021/11/10 00:19:11;;;;;;;19.07;10.40;;;4.80;99.90;;;;;;4220658;28;20531;-77
2021/11/10 00:21:13;;;;;;;16.93;9.87;;;4.80;99.90;;;;;;4217232;28;20511;-78
2021/11/10 00:23:15;;;;;;;16.60;10.10;;;4.80;99.90;;;;;;4230694;28;20450;-78
2021/11/10 00:25:17;;;;;;;17.30;10.00;;;4.90;99.90;;;;;;4230069;28;20474;-77
2021/11/10 00:27:19;;;;;;;21.70;10.87;;;4.70;99.90;;;;;;4230068;28;20494;-80
2021/11/10 00:29:21;;;;;;;17.60;9.70;;;4.70;99.90;;;;;;4229930;28;20466;-80
2021/11/10 00:31:23;;;;;;;18.97;9.80;;;4.60;99.90;;;;;;4230663;28;20512;-77
2021/11/10 00:33:24;;;;;;;19.83;9.97;;;4.60;99.90;;;;;;4226892;28;20463;-78
2021/11/10 00:35:27;;;;;;;17.03;9.60;;;4.60;99.90;;;;;;4213412;28;20475;-77
2021/11/10 00:37:29;;;;;;;17.70;9.50;;;4.60;99.90;;;;;;4226640;28;20532;-79
2021/11/10 00:39:31;;;;;;;20.20;10.80;;;4.60;99.90;;;;;;4222319;28;20475;-81
2021/11/10 00:41:33;;;;;;;19.50;10.40;;;4.50;99.90;;;;;;4230562;28;20438;-77
2021/11/10 00:43:35;;;;;;;18.27;10.23;;;4.50;99.90;;;;;;4220460;28;20505;-77
2021/11/10 00:45:37;;;;;;;20.00;10.40;;;4.50;99.90;;;;;;4238664;28;20541;-77
2021/11/10 00:47:38;;;;;;;20.80;10.27;;;4.50;99.90;;;;;;4229659;28;21039;-78
2021/11/10 00:49:40;;;;;;;19.97;10.73;;;4.50;99.90;;;;;;4224626;28;20475;-78
2021/11/10 00:51:43;;;;;;;19.63;10.37;;;4.50;99.90;;;;;;4213603;28;20451;-78
2021/11/10 00:53:45;;;;;;;20.17;10.60;;;4.40;99.90;;;;;;4226592;28;20508;-79
2021/11/10 00:55:47;;;;;;;17.07;9.23;;;4.40;99.90;;;;;;4213657;28;20972;-77
2021/11/10 00:57:49;;;;;;;20.03;10.67;;;4.40;99.90;;;;;;4223337;28;20935;-77
2021/11/10 00:59:50;;;;;;;17.83;9.53;;;4.30;99.90;;;;;;4217716;28;20471;-78
2021/11/10 01:01:52;;;;;;;18.73;9.93;;;4.30;99.90;;;;;;4227053;28;20450;-79
2021/11/10 01:03:54;;;;;;;18.60;10.37;;;4.30;99.90;;;;;;4220900;28;20500;-77
2021/11/10 01:05:57;;;;;;;19.13;10.17;;;4.30;99.90;;;;;;4230587;28;20470;-77
2021/11/10 01:08:01;;;;;;;16.67;9.60;;;4.30;99.90;;;;;;4236882;27;20441;-78
2021/11/10 01:10:04;;;;;;;18.53;10.43;;;4.20;99.90;;;;;;4244772;27;20470;-80
2021/11/10 01:12:06;;;;;;;19.13;10.23;;;4.20;99.90;;;;;;4233706;28;20516;-77
2021/11/10 01:14:08;;;;;;;21.50;10.30;;;4.20;99.90;;;;;;4233031;28;20470;-78
2021/11/10 01:16:10;;;;;;;18.80;9.63;;;4.20;99.90;;;;;;4228870;28;20507;-76
2021/11/10 01:18:12;;;;;;;19.90;10.33;;;4.20;99.90;;;;;;4231262;28;20511;-78
2021/11/10 01:20:14;;;;;;;18.33;10.10;;;4.10;99.90;;;;;;4233094;28;20510;-78
2021/11/10 01:22:16;;;;;;;19.70;10.60;;;4.10;99.90;;;;;;4232747;28;20441;-77
2021/11/10 01:26:23;;;;;;;18.43;9.87;;;4.10;99.90;;;;;;4198148;28;20546;-80
2021/11/10 01:28:24;;;;;;;19.70;10.23;;;4.10;99.90;;;;;;4199270;28;20872;-80
2021/11/10 01:30:26;;;;;;;18.10;10.30;;;4.10;99.90;;;;;;4194586;28;20463;-80
2021/11/10 01:32:28;;;;;;;20.53;10.30;;;4.10;99.90;;;;;;4194218;28;20460;-80
2021/11/10 01:34:30;;;;;;;18.00;9.87;;;4.10;99.90;;;;;;4193491;28;20455;-80
2021/11/10 01:36:32;;;;;;;18.40;9.73;;;4.10;99.90;;;;;;4192772;28;20452;-80
2021/11/10 01:38:34;;;;;;;16.93;9.40;;;4.10;99.90;;;;;;4183249;28;20491;-79
2021/11/10 01:40:36;;;;;;;17.30;9.43;;;4.10;99.90;;;;;;4175673;28;20516;-80
2021/11/10 01:42:40;;;;;;;17.07;10.30;;;4.00;99.90;;;;;;4180122;28;20464;-78
2021/11/10 01:44:42;;;;;;;18.63;10.13;;;4.00;99.90;;;;;;4182710;28;20889;-80
2021/11/10 01:46:44;;;;;;;17.60;9.47;;;4.00;99.90;;;;;;4188662;28;20545;-80
2021/11/10 01:48:45;;;;;;;16.80;9.67;;;4.00;99.90;;;;;;4182461;28;20464;-80
2021/11/10 01:50:47;;;;;;;16.80;9.23;;;3.90;99.90;;;;;;4182131;28;20461;-80
2021/11/10 01:52:49;;;;;;;14.83;9.00;;;3.90;99.90;;;;;;4187420;28;20463;-80
2021/11/10 01:54:51;;;;;;;18.03;9.80;;;3.90;99.90;;;;;;4186848;28;20859;-80
2021/11/10 01:56:53;;;;;;;16.93;9.67;;;3.90;99.90;;;;;;4189586;28;20535;-80
2021/11/10 01:58:56;;;;;;;18.50;10.33;;;3.80;99.90;;;;;;4188116;28;20460;-80
2021/11/10 02:00:59;;;;;;;20.27;10.43;;;3.80;99.90;;;;;;4182562;28;20459;-79
2021/11/10 02:03:01;;;;;;;19.30;9.73;;;3.80;99.90;;;;;;4196994;28;20862;-79
2021/11/10 02:05:04;;;;;;;18.93;10.03;;;3.80;99.90;;;;;;4186616;28;20554;-79
2021/11/10 02:07:06;;;;;;;19.00;10.20;;;3.70;99.90;;;;;;4182571;28;20569;-80
2021/11/10 02:09:08;;;;;;;19.23;10.40;;;3.70;99.90;;;;;;4180827;28;20468;-80
2021/11/10 02:11:11;;;;;;;17.37;9.73;;;3.70;99.90;;;;;;4180975;28;20441;-80
2021/11/10 02:13:13;;;;;;;17.17;9.40;;;3.70;99.90;;;;;;4170032;28;20942;-79
2021/11/10 02:15:18;;;;;;;22.53;10.37;;;3.60;99.90;;;;;;4179664;28;21020;-80
2021/11/10 02:17:21;;;;;;;18.83;10.30;;;3.60;99.90;;;;;;4171111;28;20458;-80
2021/11/10 02:19:24;;;;;;;17.80;9.77;;;3.60;99.90;;;;;;4173311;28;20474;-79
2021/11/10 02:21:30;;;;;;;18.27;9.67;;;3.60;99.90;;;;;;4179009;28;20460;-80
2021/11/10 02:23:32;;;;;;;22.57;10.47;;;3.60;99.90;;;;;;4181407;28;20481;-80
2021/11/10 02:25:34;;;;;;;17.13;9.90;;;3.60;99.90;;;;;;4177094;28;20499;-80
2021/11/10 02:27:37;;;;;;;19.27;9.83;;;3.60;99.90;;;;;;4187778;28;20527;-80
2021/11/10 02:29:38;;;;;;;19.77;10.67;;;3.60;99.90;;;;;;4175310;28;20449;-80
2021/11/10 02:31:40;;;;;;;20.93;10.37;;;3.60;99.90;;;;;;4176360;28;20477;-80
2021/11/10 02:33:43;;;;;;;19.17;10.10;;;3.60;99.90;;;;;;4182001;28;20518;-80
2021/11/10 02:35:44;;;;;;;18.00;9.47;;;3.60;99.90;;;;;;4181909;28;20485;-80
2021/11/10 02:37:51;;;;;;;20.47;10.33;;;3.50;99.90;;;;;;4182018;28;20469;-80
2021/11/10 02:39:53;;;;;;;21.83;10.37;;;3.50;99.90;;;;;;4181671;28;20567;-80
2021/11/10 02:41:55;;;;;;;18.13;9.63;;;3.50;99.90;;;;;;4182247;28;21027;-80
2021/11/10 02:43:57;;;;;;;19.57;10.40;;;3.50;99.90;;;;;;4195873;28;20937;-79
2021/11/10 02:45:59;;;;;;;20.10;10.53;;;3.50;99.90;;;;;;4197130;28;20539;-80
2021/11/10 02:48:01;;;;;;;21.83;10.70;;;3.40;99.90;;;;;;4187006;28;20542;-80
2021/11/10 02:50:03;;;;;;;20.07;10.73;;;3.40;99.90;;;;;;4192775;28;20451;-79
2021/11/10 02:52:07;;;;;;;23.50;11.13;;;3.40;99.90;;;;;;4198497;28;20510;-80
2021/11/10 02:54:10;;;;;;;17.33;10.23;;;3.40;99.90;;;;;;4197847;28;20695;-80
2021/11/10 02:56:12;;;;;;;17.67;10.27;;;3.40;99.90;;;;;;4185540;28;20550;-80
2021/11/10 02:58:13;;;;;;;18.87;10.50;;;3.30;99.90;;;;;;4187562;28;20467;-80
2021/11/10 03:00:16;;;;;;;20.83;11.13;;;3.30;99.90;;;;;;4183409;28;20465;-79
2021/11/10 03:02:24;;;;;;;21.73;11.13;;;3.30;99.90;;;;;;4182111;28;20457;-79
2021/11/10 03:04:28;;;;;;;19.03;11.00;;;3.20;99.90;;;;;;4181277;28;20542;-80
2021/11/10 03:06:30;;;;;;;19.33;10.47;;;3.20;99.90;;;;;;4181243;28;20464;-80
2021/11/10 03:08:32;;;;;;;21.10;10.73;;;3.20;99.90;;;;;;4176615;28;20533;-80
2021/11/10 03:10:35;;;;;;;20.57;10.70;;;3.20;99.90;;;;;;4180446;28;20514;-80
2021/11/10 03:12:37;;;;;;;19.50;10.97;;;3.10;99.90;;;;;;4176176;28;20464;-79
2021/11/10 03:14:41;;;;;;;21.23;11.67;;;3.10;99.90;;;;;;4181114;28;20625;-80
2021/11/10 03:16:43;;;;;;;20.47;10.43;;;3.10;99.90;;;;;;4182015;28;20471;-79
2021/11/10 03:18:45;;;;;;;19.47;10.60;;;3.10;99.90;;;;;;4188199;28;20814;-79
2021/11/10 03:20:47;;;;;;;20.27;11.00;;;3.10;99.90;;;;;;4187900;28;20456;-79
2021/11/10 03:22:48;;;;;;;18.47;10.40;;;3.10;99.90;;;;;;4180792;28;20551;-79
2021/11/10 03:24:51;;;;;;;16.77;9.97;;;3.10;99.90;;;;;;4176092;28;20492;-79
2021/11/10 03:26:54;;;;;;;17.87;10.03;;;3.10;99.90;;;;;;4181606;28;20425;-79
2021/11/10 03:28:55;;;;;;;19.93;10.40;;;3.10;99.90;;;;;;4171942;28;20883;-79
2021/11/10 03:30:58;;;;;;;18.77;9.90;;;3.10;99.90;;;;;;4169877;28;20459;-79
2021/11/10 03:33:00;;;;;;;18.53;11.10;;;3.10;99.90;;;;;;4180548;28;20480;-79
2021/11/10 03:35:02;;;;;;;22.30;11.03;;;3.10;99.90;;;;;;4169604;28;20489;-79
2021/11/10 03:37:04;;;;;;;17.67;10.17;;;3.10;99.90;;;;;;4178387;28;20460;-79
2021/11/10 03:39:08;;;;;;;20.13;10.67;;;3.10;99.90;;;;;;4179900;28;20462;-79
2021/11/10 03:41:10;;;;;;;18.93;10.97;;;3.00;99.90;;;;;;4177155;28;20518;-79
2021/11/10 03:43:13;;;;;;;20.57;11.13;;;3.00;99.90;;;;;;4183502;28;20986;-79
2021/11/10 03:45:15;;;;;;;19.30;11.13;;;3.00;99.90;;;;;;4176154;28;20474;-79
2021/11/10 03:47:17;;;;;;;18.90;10.43;;;3.00;99.90;;;;;;4167324;28;20553;-79
2021/11/10 03:49:19;;;;;;;18.30;10.63;;;3.00;99.90;;;;;;4180521;28;20477;-79
2021/11/10 03:51:21;;;;;;;17.23;10.40;;;3.00;99.90;;;;;;4179426;28;20475;-79
2021/11/10 03:53:23;;;;;;;19.30;10.83;;;2.90;99.90;;;;;;4181344;28;20461;-79
2021/11/10 03:55:32;;;;;;;18.37;9.90;;;2.90;99.90;;;;;;4180054;28;20879;-79
2021/11/10 03:57:34;;;;;;;17.43;10.07;;;2.90;99.90;;;;;;4180524;28;20511;-79
2021/11/10 03:59:37;;;;;;;17.97;10.03;;;2.90;99.90;;;;;;4173233;28;20488;-79
2021/11/10 04:01:39;;;;;;;17.50;9.87;;;2.90;99.90;;;;;;4176883;28;20460;-79
2021/11/10 04:03:41;;;;;;;17.13;10.67;;;2.90;99.90;;;;;;4179791;28;20647;-79
2021/11/10 04:05:43;;;;;;;20.30;10.17;;;2.90;99.90;;;;;;4182496;28;20492;-79
2021/11/10 04:07:45;;;;;;;19.23;10.43;;;2.80;99.90;;;;;;4185816;28;20491;-79
2021/11/10 04:09:47;;;;;;;17.50;9.30;;;2.80;99.90;;;;;;4162871;28;20530;-79
2021/11/10 04:11:48;;;;;;;17.93;9.63;;;2.80;99.90;;;;;;4175077;28;20460;-79
2021/11/10 04:13:50;;;;;;;17.10;9.53;;;2.80;99.90;;;;;;4179388;28;20522;-79
2021/11/10 04:15:54;;;;;;;20.80;10.07;;;2.80;99.90;;;;;;4181858;28;20486;-79
2021/11/10 04:17:55;;;;;;;16.17;9.00;;;2.70;99.90;;;;;;4186085;28;20458;-79
2021/11/10 04:19:57;;;;;;;18.43;9.00;;;2.70;99.90;;;;;;4173023;28;20461;-79
2021/11/10 04:21:59;;;;;;;15.67;8.93;;;2.70;99.90;;;;;;4164461;28;20457;-79
2021/11/10 04:24:01;;;;;;;17.20;9.57;;;2.70;99.90;;;;;;4174551;28;21758;-79
2021/11/10 04:26:04;;;;;;;15.83;9.47;;;2.70;99.90;;;;;;4184206;28;20488;-79
2021/11/10 04:28:06;;;;;;;15.00;9.00;;;2.70;99.90;;;;;;4180293;28;20862;-80
2021/11/10 04:30:11;;;;;;;18.47;9.83;;;2.70;99.90;;;;;;4175440;28;20838;-79
2021/11/10 04:32:14;;;;;;;16.03;9.40;;;2.70;99.90;;;;;;4179915;28;20472;-79
2021/11/10 04:34:16;;;;;;;19.47;9.77;;;2.60;99.90;;;;;;4171833;28;20495;-79
2021/11/10 04:36:19;;;;;;;15.97;9.67;;;2.70;99.90;;;;;;4178849;28;20833;-79
2021/11/10 04:38:20;;;;;;;14.60;9.27;;;2.60;99.90;;;;;;4179174;28;20460;-80
2021/11/10 04:40:22;;;;;;;16.00;9.13;;;2.60;99.90;;;;;;4167337;28;20461;-79
2021/11/10 04:42:24;;;;;;;20.17;9.50;;;2.60;99.90;;;;;;4187700;28;20825;-79
2021/11/10 04:44:26;;;;;;;18.03;9.50;;;2.60;99.90;;;;;;4186575;28;20941;-79
2021/11/10 04:46:30;;;;;;;17.17;9.07;;;2.60;99.90;;;;;;4163113;28;20468;-79
2021/11/10 04:48:36;;;;;;;16.53;9.10;;;2.60;99.90;;;;;;4177460;28;20491;-79
2021/11/10 04:50:42;;;;;;;17.60;9.17;;;2.60;99.90;;;;;;4171928;28;20476;-79
2021/11/10 04:52:43;;;;;;;16.70;9.63;;;2.50;99.90;;;;;;4166467;28;20551;-79
2021/11/10 04:54:45;;;;;;;17.43;9.77;;;2.50;99.90;;;;;;4171001;28;20492;-79
2021/11/10 04:56:47;;;;;;;17.87;9.43;;;2.50;99.90;;;;;;4180235;28;20445;-79
2021/11/10 04:58:49;;;;;;;16.73;8.73;;;2.50;99.90;;;;;;4167541;28;20980;-79
2021/11/10 05:00:50;;;;;;;16.10;9.33;;;2.50;99.90;;;;;;4165974;28;20459;-79
2021/11/10 05:02:52;;;;;;;16.87;9.40;;;2.50;99.90;;;;;;4169419;28;20463;-79
2021/11/10 05:04:56;;;;;;;16.90;8.73;;;2.50;99.90;;;;;;4178019;28;20499;-79
2021/11/10 05:06:58;;;;;;;15.63;9.33;;;2.50;99.90;;;;;;4174740;28;20934;-79
2021/11/10 05:09:00;;;;;;;14.83;9.00;;;2.50;99.90;;;;;;4177974;28;20911;-79
2021/11/10 05:11:02;;;;;;;17.97;9.47;;;2.50;99.90;;;;;;4182115;28;20898;-79
2021/11/10 05:13:04;;;;;;;15.10;8.90;;;2.50;99.90;;;;;;4178985;28;20468;-79
2021/11/10 05:15:07;;;;;;;16.13;8.83;;;2.50;99.90;;;;;;4173521;28;20497;-79
2021/11/10 05:17:08;;;;;;;15.47;9.70;;;2.50;99.90;;;;;;4175955;28;21018;-79
2021/11/10 05:19:10;;;;;;;14.17;8.17;;;2.50;99.90;;;;;;4185665;28;20521;-79
2021/11/10 05:21:14;;;;;;;16.50;9.20;;;2.40;99.90;;;;;;4173945;28;20523;-79
2021/11/10 05:23:16;;;;;;;17.30;9.13;;;2.40;99.90;;;;;;4178879;28;20894;-79
2021/11/10 05:25:18;;;;;;;19.37;9.43;;;2.40;99.90;;;;;;4176650;28;21042;-80
2021/11/10 05:27:20;;;;;;;13.97;8.23;;;2.40;99.90;;;;;;4181001;28;20473;-80
2021/11/10 05:29:22;;;;;;;17.93;9.10;;;2.40;99.90;;;;;;4178767;28;20487;-79
2021/11/10 05:31:23;;;;;;;15.93;8.67;;;2.40;99.90;;;;;;4178499;28;20461;-79
2021/11/10 05:33:25;;;;;;;17.27;9.73;;;2.40;99.90;;;;;;4170621;28;20831;-79
2021/11/10 05:35:27;;;;;;;15.97;9.27;;;2.40;99.90;;;;;;4177166;28;20491;-79
2021/11/10 05:37:31;;;;;;;15.07;8.80;;;2.40;99.90;;;;;;4167595;28;20634;-79
2021/11/10 05:39:32;;;;;;;15.77;9.03;;;2.40;99.90;;;;;;4188495;28;20471;-79
2021/11/10 05:41:34;;;;;;;14.47;8.33;;;2.40;99.90;;;;;;4182342;28;20853;-79
2021/11/10 05:43:36;;;;;;;13.80;8.13;;;2.40;99.90;;;;;;4180373;28;20549;-79
2021/11/10 05:45:39;;;;;;;18.33;9.30;;;2.40;99.90;;;;;;4190150;28;20496;-79
2021/11/10 05:47:40;;;;;;;16.20;9.13;;;2.40;99.90;;;;;;4173461;28;20486;-79
2021/11/10 05:49:42;;;;;;;15.30;8.60;;;2.40;99.90;;;;;;4193004;28;20478;-79
2021/11/10 05:51:44;;;;;;;14.93;8.53;;;2.30;99.90;;;;;;4183895;28;21048;-80
2021/11/10 05:53:48;;;;;;;16.40;9.00;;;2.30;99.90;;;;;;4182880;28;20466;-79
2021/11/10 05:55:53;;;;;;;15.20;8.83;;;2.30;99.90;;;;;;4180961;28;20570;-78
2021/11/10 05:57:55;;;;;;;17.63;9.10;;;2.30;99.90;;;;;;4176936;28;20539;-78
2021/11/10 05:59:56;;;;;;;15.07;8.83;;;2.30;99.90;;;;;;4174600;28;20503;-78
2021/11/10 06:01:58;;;;;;;17.97;8.60;;;2.30;99.90;;;;;;4173947;28;20469;-78
2021/11/10 06:04:00;;;;;;;17.43;8.77;;;2.30;99.90;;;;;;4171802;28;20569;-78
2021/11/10 06:06:01;;;;;;;16.77;8.97;;;2.20;99.90;;;;;;4177666;28;21024;-78
2021/11/10 06:08:04;;;;;;;14.70;8.57;;;2.20;99.90;;;;;;4168158;28;21076;-78
2021/11/10 06:10:07;;;;;;;16.43;9.37;;;2.20;99.90;;;;;;4169762;28;20467;-78
2021/11/10 06:12:11;;;;;;;16.47;8.77;;;2.20;99.90;;;;;;4183436;28;20509;-78
2021/11/10 06:14:13;;;;;;;16.20;9.07;;;2.20;99.90;;;;;;4175588;28;20509;-79
2021/11/10 06:16:15;;;;;;;15.97;8.80;;;2.20;99.90;;;;;;4180522;28;20483;-78
2021/11/10 06:18:16;;;;;;;16.63;8.90;;;2.20;99.90;;;;;;4174540;28;20956;-79
2021/11/10 06:20:19;;;;;;;15.97;9.00;;;2.20;99.90;;;;;;4179314;28;20855;-78
2021/11/10 06:22:20;;;;;;;14.57;8.50;;;2.20;99.90;;;;;;4184273;28;21211;-78
2021/11/10 06:24:23;;;;;;;18.17;9.53;;;2.20;99.90;;;;;;4185236;28;20452;-78
2021/11/10 06:26:26;;;;;;;16.37;9.40;;;2.20;99.90;;;;;;4171704;28;21057;-78
2021/11/10 06:28:28;;;;;;;15.97;9.03;;;2.30;99.90;;;;;;4178911;28;20840;-78
2021/11/10 06:30:29;;;;;;;16.37;8.57;;;2.20;99.90;;;;;;4173249;28;20531;-78
2021/11/10 06:32:31;;;;;;;19.70;10.23;;;2.20;99.90;;;;;;4178752;28;20533;-78
2021/11/10 06:34:33;;;;;;;17.00;9.37;;;2.20;99.90;;;;;;4174579;28;20969;-78
2021/11/10 06:36:35;;;;;;;16.27;9.40;;;2.30;99.90;;;;;;4172942;28;20506;-78
2021/11/10 06:38:38;;;;;;;19.10;10.67;;;2.30;99.90;;;;;;4177801;28;20473;-78
2021/11/10 06:40:40;;;;;;;19.10;9.93;;;2.30;99.90;;;;;;4179923;28;20478;-78
2021/11/10 06:42:43;;;;;;;16.50;9.17;;;2.30;99.90;;;;;;4183232;28;20475;-78
2021/11/10 06:44:45;;;;;;;17.37;8.97;;;2.30;99.90;;;;;;4189047;28;20551;-78
2021/11/10 06:46:47;;;;;;;17.77;9.30;;;2.30;99.90;;;;;;4184163;28;20873;-78
2021/11/10 06:48:48;;;;;;;19.07;9.27;;;2.30;99.90;;;;;;4180681;28;20554;-79
2021/11/10 06:50:50;;;;;;;16.93;8.60;;;2.30;99.90;;;;;;4184704;28;20464;-78
2021/11/10 06:52:52;;;;;;;16.80;8.77;;;2.30;99.90;;;;;;4181644;28;20466;-78
2021/11/10 06:54:54;;;;;;;15.87;8.93;;;2.30;99.90;;;;;;4187020;28;20549;-78
2021/11/10 06:56:55;;;;;;;14.40;8.30;;;2.30;99.90;;;;;;4181506;28;20459;-78
2021/11/10 06:58:59;;;;;;;14.30;8.63;;;2.30;99.90;;;;;;4180069;28;20884;-79
2021/11/10 07:01:01;;;;;;;16.73;9.10;;;2.30;99.90;;;;;;4186143;28;20467;-79
2021/11/10 07:03:04;;;;;;;15.73;8.53;;;2.30;99.90;;;;;;4177890;28;20451;-79
2021/11/10 07:05:06;;;;;;;15.97;8.60;;;2.30;99.90;;;;;;4176078;28;21052;-78
2021/11/10 07:07:08;;;;;;;15.90;8.27;;;2.30;99.90;;;;;;4166089;28;20491;-79
2021/11/10 07:09:09;;;;;;;15.87;8.93;;;2.40;99.90;;;;;;4164864;28;20904;-79
2021/11/10 07:11:11;;;;;;;16.63;8.77;;;2.40;99.90;;;;;;4165809;28;20468;-79
2021/11/10 07:13:13;;;;;;;15.23;8.77;;;2.40;99.90;;;;;;4193966;28;20475;-79
2021/11/10 07:15:16;;;;;;;14.67;9.00;;;2.40;99.90;;;;;;4199347;28;21002;-79
2021/11/10 07:17:18;;;;;;;15.70;8.80;;;2.40;99.90;;;;;;4191548;28;20468;-79
2021/11/10 07:19:20;;;;;;;14.90;8.60;;;2.40;99.90;;;;;;4182805;28;20864;-79
2021/11/10 07:21:21;;;;;;;17.37;9.20;;;2.40;99.90;;;;;;4176439;28;20541;-78
2021/11/10 07:23:23;;;;;;;20.53;10.00;;;2.40;99.90;;;;;;4181567;28;20490;-79
2021/11/10 07:25:26;;;;;;;18.33;9.07;;;2.40;99.90;;;;;;4207149;22;20877;-77
2021/11/10 07:27:27;;;;;;;16.20;9.03;;;2.50;99.90;;;;;;4220935;28;20561;-77
2021/11/10 07:29:30;;;;;;;16.57;8.90;;;2.50;99.90;;;;;;4214454;28;20505;-77
2021/11/10 07:31:33;;;;;;;15.37;9.13;;;2.50;99.90;;;;;;4214575;28;20875;-77
2021/11/10 07:33:35;;;;;;;15.20;8.33;;;2.50;99.90;;;;;;4212959;28;20942;-79
2021/11/10 07:35:37;;;;;;;15.23;8.73;;;2.50;99.90;;;;;;4204860;28;20490;-78
2021/11/10 07:37:41;;;;;;;15.60;8.53;;;2.50;99.90;;;;;;4197698;28;20459;-80
2021/11/10 07:39:44;;;;;;;16.43;8.30;;;2.50;99.90;;;;;;4196491;28;20454;-78
2021/11/10 07:41:48;;;;;;;16.50;8.80;;;2.50;99.90;;;;;;4196590;28;20873;-77
2021/11/10 07:43:53;;;;;;;14.73;8.87;;;2.50;99.90;;;;;;4199393;28;20506;-78
2021/11/10 07:45:59;;;;;;;14.30;8.87;;;2.50;99.90;;;;;;4214229;28;20466;-77
2021/11/10 07:48:03;;;;;;;14.37;8.60;;;2.60;99.90;;;;;;4214506;28;20472;-77
2021/11/10 07:50:05;;;;;;;14.87;8.23;;;2.60;99.90;;;;;;4204117;28;20491;-78
2021/11/10 07:52:07;;;;;;;13.43;8.60;;;2.60;99.90;;;;;;4203645;28;20849;-77
2021/11/10 07:54:09;;;;;;;16.00;8.87;;;2.60;99.90;;;;;;4213776;28;20516;-78
2021/11/10 07:56:11;;;;;;;14.70;8.17;;;2.70;99.90;;;;;;4213158;28;20535;-77
2021/11/10 07:58:13;;;;;;;17.13;8.67;;;2.70;99.90;;;;;;4213829;28;20458;-77
2021/11/10 08:00:17;;;;;;;15.43;8.60;;;2.70;99.90;;;;;;4213666;28;20874;-78
2021/11/10 08:02:20;;;;;;;15.97;8.17;;;2.70;99.90;;;;;;4197194;28;20526;-78
2021/11/10 08:04:23;;;;;;;17.30;8.37;;;2.70;99.90;;;;;;4195919;28;20606;-78
2021/11/10 08:06:24;;;;;;;16.17;8.70;;;2.80;99.90;;;;;;4196940;28;20487;-78
2021/11/10 08:08:26;;;;;;;14.13;8.47;;;2.80;99.90;;;;;;4196222;28;20468;-81
2021/11/10 08:10:28;;;;;;;14.77;8.97;;;2.80;99.90;;;;;;4202036;28;20495;-77
2021/11/10 08:12:31;;;;;;;17.90;8.60;;;2.80;99.90;;;;;;4213301;28;20451;-78
2021/11/10 08:14:32;;;;;;;19.57;8.80;;;2.80;99.90;;;;;;4201218;28;20845;-79
2021/11/10 08:16:34;;;;;;;14.70;8.50;;;2.90;99.90;;;;;;4196101;28;20969;-82
2021/11/10 08:18:36;;;;;;;17.33;8.80;;;2.90;99.90;;;;;;4189962;28;20503;-78
2021/11/10 08:20:39;;;;;;;16.43;8.90;;;2.90;99.90;;;;;;4180243;28;20441;-78
2021/11/10 08:22:42;;;;;;;16.10;8.60;;;3.00;99.90;;;;;;4179594;28;20550;-78
2021/11/10 08:24:47;;;;;;;16.20;8.77;;;3.00;99.90;;;;;;4197337;28;20529;-79
2021/11/10 08:26:49;;;;;;;17.23;9.07;;;3.00;99.90;;;;;;4196967;28;20812;-80
2021/11/10 08:28:51;;;;;;;15.77;8.93;;;3.00;99.90;;;;;;4196208;28;20802;-79
2021/11/10 08:30:53;;;;;;;17.83;8.73;;;3.00;99.90;;;;;;4196117;28;20460;-77
2021/11/10 08:32:56;;;;;;;15.57;8.60;;;3.10;99.90;;;;;;4210477;28;20521;-78
2021/11/10 08:34:58;;;;;;;13.97;8.33;;;3.10;99.90;;;;;;4213422;28;20959;-79
2021/11/10 08:37:01;;;;;;;15.77;8.40;;;3.10;99.90;;;;;;4196646;28;20830;-78
2021/11/10 08:39:04;;;;;;;15.87;7.97;;;3.10;99.90;;;;;;4197057;28;20452;-78
2021/11/10 08:41:06;;;;;;;17.00;8.77;;;3.20;99.90;;;;;;4194411;28;20494;-78
2021/11/10 08:43:10;;;;;;;14.50;8.17;;;3.10;99.90;;;;;;4206681;28;20888;-78
2021/11/10 08:45:14;;;;;;;16.43;8.80;;;3.20;99.90;;;;;;4199045;28;20556;-79
2021/11/10 08:47:16;;;;;;;14.80;8.10;;;3.20;99.90;;;;;;4209812;28;20464;-77
2021/11/10 08:49:18;;;;;;;14.13;7.93;;;3.20;99.90;;;;;;4210298;28;21011;-79
2021/11/10 08:51:20;;;;;;;17.93;8.70;;;3.20;99.90;;;;;;4206117;28;20463;-78
2021/11/10 08:53:23;;;;;;;16.73;8.83;;;3.30;99.90;;;;;;4212275;28;20539;-78
2021/11/10 08:55:26;;;;;;;14.63;8.23;;;3.30;99.90;;;;;;4207811;28;20491;-77
2021/11/10 08:57:27;;;;;;;18.07;8.33;;;3.30;99.90;;;;;;4212267;28;20520;-78
2021/11/10 08:59:30;;;;;;;15.83;8.67;;;3.40;99.90;;;;;;4213224;28;20462;-78
2021/11/10 09:01:34;;;;;;;15.03;7.97;;;3.40;99.90;;;;;;4209517;28;20978;-80
2021/11/10 09:03:36;;;;;;;14.70;8.37;;;3.40;99.90;;;;;;4205436;28;20567;-78
2021/11/10 09:05:39;;;;;;;14.47;8.47;;;3.50;99.90;;;;;;4196724;28;20483;-79
2021/11/10 09:07:41;;;;;;;16.80;8.30;;;3.50;99.90;;;;;;4204206;28;20453;-77
2021/11/10 09:09:44;;;;;;;15.40;8.40;;;3.50;99.90;;;;;;4195910;28;20500;-81
2021/11/10 09:11:47;;;;;;;19.57;8.90;;;3.60;99.90;;;;;;4207132;28;20475;-77
2021/11/10 09:13:50;;;;;;;14.73;8.53;;;3.60;99.90;;;;;;4213617;28;20466;-78
2021/11/10 09:15:52;;;;;;;18.37;8.80;;;3.70;99.90;;;;;;4197996;28;20487;-77
2021/11/10 09:17:54;;;;;;;16.50;8.70;;;3.70;99.90;;;;;;4199875;28;20474;-78
2021/11/10 09:19:55;;;;;;;16.60;8.23;;;3.80;99.90;;;;;;4213279;28;20447;-77
2021/11/10 09:21:57;;;;;;;14.43;9.00;;;3.80;99.90;;;;;;4212773;28;20463;-80
2021/11/10 09:23:59;;;;;;;16.50;9.13;;;3.90;99.90;;;;;;4189815;28;20472;-77
2021/11/10 09:26:02;;;;;;;14.33;8.07;;;3.90;99.90;;;;;;4206508;28;20494;-77
2021/11/10 09:28:07;;;;;;;15.57;8.13;;;4.00;99.90;;;;;;4216067;28;20455;-77
2021/11/10 09:30:11;;;;;;;18.00;8.97;;;4.00;99.90;;;;;;4215308;28;21035;-78
2021/11/10 09:32:13;;;;;;;19.67;9.57;;;4.10;99.90;;;;;;4208860;28;20513;-77
2021/11/10 09:34:15;;;;;;;19.53;8.90;;;4.20;99.90;;;;;;4198703;28;20455;-78
2021/11/10 09:36:17;;;;;;;17.23;9.33;;;4.30;99.90;;;;;;4198677;28;20487;-77
2021/11/10 09:38:19;;;;;;;15.87;8.57;;;4.30;99.90;;;;;;4209454;28;20952;-77
2021/11/10 09:40:24;;;;;;;15.20;8.50;;;4.40;99.90;;;;;;4216215;28;20446;-77
2021/11/10 09:42:28;;;;;;;17.57;8.17;;;4.40;99.90;;;;;;4213567;28;20489;-80
2021/11/10 09:44:30;;;;;;;15.90;9.63;;;4.60;99.90;;;;;;4212100;28;20473;-80
2021/11/10 09:46:32;;;;;;;18.67;9.27;;;4.60;99.90;;;;;;4216353;28;20891;-78
2021/11/10 09:48:35;;;;;;;16.57;9.27;;;4.70;99.90;;;;;;4201722;28;20478;-78
2021/11/10 09:50:42;;;;;;;17.93;8.93;;;4.70;99.90;;;;;;4198413;28;20524;-78
2021/11/10 09:52:45;;;;;;;19.20;9.73;;;4.80;99.90;;;;;;4196420;28;20483;-78
2021/11/10 09:54:47;;;;;;;17.73;8.97;;;4.90;99.90;;;;;;4207697;28;20467;-78
2021/11/10 09:56:51;;;;;;;18.93;9.07;;;5.00;99.90;;;;;;4214910;28;21003;-78
2021/11/10 09:58:54;;;;;;;19.17;9.93;;;5.00;99.90;;;;;;4209066;28;20480;-78
2021/11/10 10:01:00;;;;;;;20.60;9.40;;;5.10;99.90;;;;;;4210418;28;20448;-78
2021/11/10 10:03:04;;;;;;;17.60;9.07;;;5.20;99.90;;;;;;4215623;28;20463;-78
2021/11/10 10:05:07;;;;;;;18.70;8.77;;;5.30;99.90;;;;;;4208638;28;20484;-78
2021/11/10 10:07:10;;;;;;;16.03;8.40;;;5.30;99.90;;;;;;4215137;28;20472;-79
2021/11/10 10:09:13;;;;;;;15.20;8.07;;;5.40;99.90;;;;;;4215008;28;20451;-78
2021/11/10 10:11:15;;;;;;;15.33;8.23;;;5.50;99.90;;;;;;4214653;28;20464;-79
2021/11/10 10:13:19;;;;;;;15.20;8.23;;;5.60;99.90;;;;;;4213654;28;20506;-79
2021/11/10 10:15:23;;;;;;;14.40;7.40;;;5.60;99.90;;;;;;4198147;28;20550;-80
2021/11/10 10:17:39;;;;;;;15.37;8.23;;;5.70;99.90;;;;;;4188331;28;20864;-79
2021/11/10 10:19:42;;;;;;;16.13;7.47;;;5.80;99.90;;;;;;4208872;28;20950;-81
2021/11/10 10:21:45;;;;;;;13.37;6.97;;;5.80;99.90;;;;;;4205952;28;20463;-80
2021/11/10 10:23:48;;;;;;;12.77;7.13;;;5.90;99.90;;;;;;4219793;28;20535;-81
2021/11/10 10:25:53;;;;;;;13.57;7.33;;;5.90;99.90;;;;;;4219926;28;20496;-81
2021/11/10 10:27:58;;;;;;;15.90;7.37;;;6.00;99.90;;;;;;4223194;28;20470;-81
2021/11/10 10:30:24;;;;;;;11.90;6.93;;;6.10;99.90;;;;;;4219382;28;20496;-80
2021/11/10 10:32:37;;;;;;;13.77;7.13;;;6.10;99.90;;;;;;4204418;28;20536;-79
2021/11/10 10:34:38;;;;;;;13.37;7.03;;;6.20;99.90;;;;;;4201185;28;20467;-80
2021/11/10 10:36:42;;;;;;;13.77;6.97;;;6.30;99.90;;;;;;4206952;28;20973;-80